sensor_id;sensor_type;location;lat;lon;timestamp;temperature;humidity
65559;DHT22;52203;51.998;5.140;2023-08-24T00:01:32;11.23;118.99
65559;DHT22;52203;51.998;5.140;2023-08-24T00:03:57;11.18;118.99
65559;DHT22;52203;51.998;5.140;2023-08-24T00:06:23;11.18;118.99
65559;DHT22;52203;51.998;5.140;2023-08-24T00:08:48;11.18;118.99
65559;DHT22;52203;51.998;5.140;2023-08-24T00:11:14;11.18;118.99
65559;DHT22;52203;51.998;5.140;2023-08-24T00:13:43;11.16;118.99
65559;DHT22;52203;51.998;5.140;2023-08-24T00:16:15;11.15;118.99
65559;DHT22;52203;51.998;5.140;2023-08-24T00:18:40;11.15;118.99
65559;DHT22;52203;51.998;5.140;2023-08-24T00:21:06;11.10;118.99
65559;DHT22;52203;51.998;5.140;2023-08-24T00:23:33;11.08;118.99
65559;DHT22;52203;51.998;5.140;2023-08-24T00:25:58;11.05;118.99
65559;DHT22;52203;51.998;5.140;2023-08-24T00:28:25;11.02;118.99
65559;DHT22;52203;51.998;5.140;2023-08-24T00:30:51;10.97;118.99
65559;DHT22;52203;51.998;5.140;2023-08-24T00:33:17;10.95;118.99
65559;DHT22;52203;51.998;5.140;2023-08-24T00:35:42;10.95;118.99
65559;DHT22;52203;51.998;5.140;2023-08-24T00:38:08;10.97;118.99
65559;DHT22;52203;51.998;5.140;2023-08-24T00:40:33;11.01;118.99
65559;DHT22;52203;51.998;5.140;2023-08-24T00:42:59;11.03;118.99
65559;DHT22;52203;51.998;5.140;2023-08-24T00:45:25;11.05;118.99
65559;DHT22;52203;51.998;5.140;2023-08-24T00:47:51;11.09;118.99
65559;DHT22;52203;51.998;5.140;2023-08-24T00:50:18;11.13;118.99
65559;DHT22;52203;51.998;5.140;2023-08-24T00:52:46;11.14;118.99
65559;DHT22;52203;51.998;5.140;2023-08-24T00:55:12;11.16;118.99
65559;DHT22;52203;51.998;5.140;2023-08-24T00:57:40;11.18;118.99
65559;DHT22;52203;51.998;5.140;2023-08-24T01:00:07;11.18;118.99
65559;DHT22;52203;51.998;5.140;2023-08-24T01:02:39;11.19;118.99
65559;DHT22;52203;51.998;5.140;2023-08-24T01:05:05;11.17;118.99
65559;DHT22;52203;51.998;5.140;2023-08-24T01:07:33;11.16;118.99
65559;DHT22;52203;51.998;5.140;2023-08-24T01:09:59;11.13;118.99
65559;DHT22;52203;51.998;5.140;2023-08-24T01:15:38;11.11;118.99
65559;DHT22;52203;51.998;5.140;2023-08-24T01:18:11;11.12;118.99
65559;DHT22;52203;51.998;5.140;2023-08-24T01:20:40;11.12;118.99
65559;DHT22;52203;51.998;5.140;2023-08-24T01:23:32;11.13;118.99
65559;DHT22;52203;51.998;5.140;2023-08-24T01:26:17;11.16;118.99
65559;DHT22;52203;51.998;5.140;2023-08-24T01:28:43;11.18;118.99
65559;DHT22;52203;51.998;5.140;2023-08-24T01:31:09;11.20;118.99
65559;DHT22;52203;51.998;5.140;2023-08-24T01:33:35;11.22;118.99
65559;DHT22;52203;51.998;5.140;2023-08-24T01:36:01;11.27;118.99
65559;DHT22;52203;51.998;5.140;2023-08-24T01:38:27;11.32;118.99
65559;DHT22;52203;51.998;5.140;2023-08-24T01:43:39;11.41;118.99
65559;DHT22;52203;51.998;5.140;2023-08-24T01:46:07;11.43;118.99
65559;DHT22;52203;51.998;5.140;2023-08-24T01:48:33;11.45;118.99
65559;DHT22;52203;51.998;5.140;2023-08-24T01:50:59;11.45;118.99
65559;DHT22;52203;51.998;5.140;2023-08-24T01:53:28;11.47;118.99
65559;DHT22;52203;51.998;5.140;2023-08-24T01:55:53;11.49;118.99
65559;DHT22;52203;51.998;5.140;2023-08-24T01:58:20;11.52;118.99
65559;DHT22;52203;51.998;5.140;2023-08-24T02:00:46;11.54;118.99
65559;DHT22;52203;51.998;5.140;2023-08-24T02:03:11;11.57;118.99
65559;DHT22;52203;51.998;5.140;2023-08-24T02:05:37;11.59;118.99
65559;DHT22;52203;51.998;5.140;2023-08-24T02:08:03;11.59;118.99
65559;DHT22;52203;51.998;5.140;2023-08-24T02:10:28;11.60;118.99
65559;DHT22;52203;51.998;5.140;2023-08-24T02:12:54;11.64;118.99
65559;DHT22;52203;51.998;5.140;2023-08-24T02:15:20;11.73;118.99
65559;DHT22;52203;51.998;5.140;2023-08-24T02:17:45;11.72;118.99
65559;DHT22;52203;51.998;5.140;2023-08-24T02:20:11;11.74;118.99
65559;DHT22;52203;51.998;5.140;2023-08-24T02:22:37;11.75;118.99
65559;DHT22;52203;51.998;5.140;2023-08-24T02:25:03;11.73;118.99
65559;DHT22;52203;51.998;5.140;2023-08-24T02:27:30;11.74;118.99
65559;DHT22;52203;51.998;5.140;2023-08-24T02:29:56;11.72;118.99
65559;DHT22;52203;51.998;5.140;2023-08-24T02:32:21;11.74;118.99
65559;DHT22;52203;51.998;5.140;2023-08-24T02:34:47;11.72;118.99
65559;DHT22;52203;51.998;5.140;2023-08-24T02:37:13;11.67;118.99
65559;DHT22;52203;51.998;5.140;2023-08-24T02:39:38;11.66;118.99
65559;DHT22;52203;51.998;5.140;2023-08-24T02:42:04;11.64;118.99
65559;DHT22;52203;51.998;5.140;2023-08-24T02:44:29;11.66;118.99
65559;DHT22;52203;51.998;5.140;2023-08-24T02:46:56;11.66;118.99
65559;DHT22;52203;51.998;5.140;2023-08-24T02:49:22;11.62;118.99
65559;DHT22;52203;51.998;5.140;2023-08-24T02:51:48;11.64;118.99
65559;DHT22;52203;51.998;5.140;2023-08-24T02:54:13;11.67;118.99
65559;DHT22;52203;51.998;5.140;2023-08-24T02:56:39;11.68;118.99
65559;DHT22;52203;51.998;5.140;2023-08-24T02:59:04;11.69;118.99
65559;DHT22;52203;51.998;5.140;2023-08-24T03:01:30;11.71;118.99
65559;DHT22;52203;51.998;5.140;2023-08-24T03:03:56;11.74;118.99
65559;DHT22;52203;51.998;5.140;2023-08-24T03:06:21;11.74;118.99
65559;DHT22;52203;51.998;5.140;2023-08-24T03:08:49;11.76;118.99
65559;DHT22;52203;51.998;5.140;2023-08-24T03:11:15;11.77;118.99
65559;DHT22;52203;51.998;5.140;2023-08-24T03:13:40;11.81;118.99
65559;DHT22;52203;51.998;5.140;2023-08-24T03:16:07;11.81;118.99
65559;DHT22;52203;51.998;5.140;2023-08-24T03:18:33;11.83;118.99
65559;DHT22;52203;51.998;5.140;2023-08-24T03:20:59;11.82;118.99
65559;DHT22;52203;51.998;5.140;2023-08-24T03:23:24;11.79;118.99
65559;DHT22;52203;51.998;5.140;2023-08-24T03:25:50;11.78;118.99
65559;DHT22;52203;51.998;5.140;2023-08-24T03:28:15;11.76;118.99
65559;DHT22;52203;51.998;5.140;2023-08-24T03:30:51;11.78;118.99
65559;DHT22;52203;51.998;5.140;2023-08-24T03:33:16;11.77;118.99
65559;DHT22;52203;51.998;5.140;2023-08-24T03:35:42;11.77;118.99
65559;DHT22;52203;51.998;5.140;2023-08-24T03:38:08;11.76;118.99
65559;DHT22;52203;51.998;5.140;2023-08-24T03:40:34;11.79;118.99
65559;DHT22;52203;51.998;5.140;2023-08-24T03:43:01;11.76;118.99
65559;DHT22;52203;51.998;5.140;2023-08-24T03:45:27;11.75;118.99
65559;DHT22;52203;51.998;5.140;2023-08-24T03:47:53;11.74;118.99
65559;DHT22;52203;51.998;5.140;2023-08-24T03:50:19;11.73;118.99
65559;DHT22;52203;51.998;5.140;2023-08-24T03:52:44;11.68;118.99
65559;DHT22;52203;51.998;5.140;2023-08-24T03:55:10;11.69;118.99
65559;DHT22;52203;51.998;5.140;2023-08-24T03:57:35;11.71;118.99
65559;DHT22;52203;51.998;5.140;2023-08-24T04:00:04;11.70;118.99
65559;DHT22;52203;51.998;5.140;2023-08-24T04:02:31;11.67;118.99
65559;DHT22;52203;51.998;5.140;2023-08-24T04:04:57;11.66;118.99
65559;DHT22;52203;51.998;5.140;2023-08-24T04:07:22;11.63;118.99
65559;DHT22;52203;51.998;5.140;2023-08-24T04:09:48;11.60;118.99
65559;DHT22;52203;51.998;5.140;2023-08-24T04:12:13;11.58;118.99
65559;DHT22;52203;51.998;5.140;2023-08-24T04:14:39;11.56;118.99
65559;DHT22;52203;51.998;5.140;2023-08-24T04:17:04;11.54;118.99
65559;DHT22;52203;51.998;5.140;2023-08-24T04:19:30;11.52;118.99
65559;DHT22;52203;51.998;5.140;2023-08-24T04:21:55;11.48;118.99
65559;DHT22;52203;51.998;5.140;2023-08-24T04:24:21;11.45;118.99
65559;DHT22;52203;51.998;5.140;2023-08-24T04:26:46;11.44;118.99
65559;DHT22;52203;51.998;5.140;2023-08-24T04:29:12;11.43;118.99
65559;DHT22;52203;51.998;5.140;2023-08-24T04:31:37;11.41;118.99
65559;DHT22;52203;51.998;5.140;2023-08-24T04:34:06;11.47;118.99
65559;DHT22;52203;51.998;5.140;2023-08-24T04:36:31;11.48;118.99
65559;DHT22;52203;51.998;5.140;2023-08-24T04:38:57;11.48;118.99
65559;DHT22;52203;51.998;5.140;2023-08-24T04:41:22;11.48;118.99
65559;DHT22;52203;51.998;5.140;2023-08-24T04:43:48;11.49;118.99
65559;DHT22;52203;51.998;5.140;2023-08-24T04:46:13;11.52;118.99
65559;DHT22;52203;51.998;5.140;2023-08-24T04:48:39;11.52;118.99
65559;DHT22;52203;51.998;5.140;2023-08-24T04:51:04;11.52;118.99
65559;DHT22;52203;51.998;5.140;2023-08-24T04:53:30;11.52;118.99
65559;DHT22;52203;51.998;5.140;2023-08-24T04:55:55;11.56;118.99
65559;DHT22;52203;51.998;5.140;2023-08-24T04:58:21;11.57;118.99
65559;DHT22;52203;51.998;5.140;2023-08-24T05:00:48;11.57;118.99
65559;DHT22;52203;51.998;5.140;2023-08-24T05:03:14;11.58;118.99
65559;DHT22;52203;51.998;5.140;2023-08-24T05:05:39;11.58;118.99
65559;DHT22;52203;51.998;5.140;2023-08-24T05:08:05;11.59;118.99
65559;DHT22;52203;51.998;5.140;2023-08-24T05:10:32;11.62;118.99
65559;DHT22;52203;51.998;5.140;2023-08-24T05:12:59;11.67;118.99
65559;DHT22;52203;51.998;5.140;2023-08-24T05:15:25;11.67;118.99
65559;DHT22;52203;51.998;5.140;2023-08-24T05:17:51;11.70;118.99
65559;DHT22;52203;51.998;5.140;2023-08-24T05:20:22;11.71;118.99
65559;DHT22;52203;51.998;5.140;2023-08-24T05:22:47;11.75;118.99
65559;DHT22;52203;51.998;5.140;2023-08-24T05:25:13;11.83;118.99
65559;DHT22;52203;51.998;5.140;2023-08-24T05:27:39;11.88;118.99
65559;DHT22;52203;51.998;5.140;2023-08-24T05:30:05;11.94;118.99
65559;DHT22;52203;51.998;5.140;2023-08-24T05:32:31;12.00;118.99
65559;DHT22;52203;51.998;5.140;2023-08-24T05:34:57;12.08;118.99
65559;DHT22;52203;51.998;5.140;2023-08-24T05:37:23;12.16;118.99
65559;DHT22;52203;51.998;5.140;2023-08-24T05:39:48;12.21;118.99
65559;DHT22;52203;51.998;5.140;2023-08-24T05:42:14;12.30;118.99
65559;DHT22;52203;51.998;5.140;2023-08-24T05:44:39;12.40;118.99
65559;DHT22;52203;51.998;5.140;2023-08-24T05:47:05;12.48;118.99
65559;DHT22;52203;51.998;5.140;2023-08-24T05:49:31;12.56;118.99
65559;DHT22;52203;51.998;5.140;2023-08-24T05:51:56;12.63;118.99
65559;DHT22;52203;51.998;5.140;2023-08-24T05:54:22;12.71;118.99
65559;DHT22;52203;51.998;5.140;2023-08-24T05:56:48;13.01;118.99
65559;DHT22;52203;51.998;5.140;2023-08-24T05:59:14;13.10;118.99
65559;DHT22;52203;51.998;5.140;2023-08-24T06:01:40;13.22;118.99
65559;DHT22;52203;51.998;5.140;2023-08-24T06:04:07;13.31;118.99
65559;DHT22;52203;51.998;5.140;2023-08-24T06:06:33;12.85;118.99
65559;DHT22;52203;51.998;5.140;2023-08-24T06:08:59;12.87;118.99
65559;DHT22;52203;51.998;5.140;2023-08-24T06:11:24;12.86;118.99
65559;DHT22;52203;51.998;5.140;2023-08-24T06:13:50;13.02;118.99
65559;DHT22;52203;51.998;5.140;2023-08-24T06:16:19;13.67;118.99
65559;DHT22;52203;51.998;5.140;2023-08-24T06:18:44;13.91;118.99
65559;DHT22;52203;51.998;5.140;2023-08-24T06:21:10;14.13;118.99
65559;DHT22;52203;51.998;5.140;2023-08-24T06:23:35;13.52;118.99
65559;DHT22;52203;51.998;5.140;2023-08-24T06:26:01;13.63;118.99
65559;DHT22;52203;51.998;5.140;2023-08-24T06:28:27;13.67;118.99
65559;DHT22;52203;51.998;5.140;2023-08-24T06:30:54;15.65;118.99
65559;DHT22;52203;51.998;5.140;2023-08-24T06:33:20;15.66;118.99
65559;DHT22;52203;51.998;5.140;2023-08-24T06:35:46;15.91;118.99
65559;DHT22;52203;51.998;5.140;2023-08-24T06:38:11;15.89;118.99
65559;DHT22;52203;51.998;5.140;2023-08-24T06:40:37;17.25;118.99
65559;DHT22;52203;51.998;5.140;2023-08-24T06:43:02;17.45;118.99
65559;DHT22;52203;51.998;5.140;2023-08-24T06:45:29;17.47;118.99
65559;DHT22;52203;51.998;5.140;2023-08-24T06:47:55;17.78;118.99
65559;DHT22;52203;51.998;5.140;2023-08-24T06:50:20;18.08;118.99
65559;DHT22;52203;51.998;5.140;2023-08-24T06:52:46;18.30;118.99
65559;DHT22;52203;51.998;5.140;2023-08-24T06:55:12;18.36;118.99
65559;DHT22;52203;51.998;5.140;2023-08-24T06:57:38;18.74;118.99
65559;DHT22;52203;51.998;5.140;2023-08-24T07:00:04;18.93;118.99
65559;DHT22;52203;51.998;5.140;2023-08-24T07:02:35;18.74;118.99
65559;DHT22;52203;51.998;5.140;2023-08-24T07:05:02;19.24;118.99
65559;DHT22;52203;51.998;5.140;2023-08-24T07:07:30;19.53;118.99
65559;DHT22;52203;51.998;5.140;2023-08-24T07:09:55;19.74;118.99
65559;DHT22;52203;51.998;5.140;2023-08-24T07:12:21;20.19;118.99
65559;DHT22;52203;51.998;5.140;2023-08-24T07:14:47;20.44;118.99
65559;DHT22;52203;51.998;5.140;2023-08-24T07:17:12;20.88;118.99
65559;DHT22;52203;51.998;5.140;2023-08-24T07:19:38;21.20;118.99
65559;DHT22;52203;51.998;5.140;2023-08-24T07:22:03;21.33;118.99
65559;DHT22;52203;51.998;5.140;2023-08-24T07:24:29;21.48;118.99
65559;DHT22;52203;51.998;5.140;2023-08-24T07:26:55;21.66;118.99
65559;DHT22;52203;51.998;5.140;2023-08-24T07:29:21;21.90;118.99
65559;DHT22;52203;51.998;5.140;2023-08-24T07:31:47;22.03;118.99
65559;DHT22;52203;51.998;5.140;2023-08-24T07:34:13;22.32;118.99
65559;DHT22;52203;51.998;5.140;2023-08-24T07:36:39;22.39;118.99
65559;DHT22;52203;51.998;5.140;2023-08-24T07:39:04;22.64;118.99
65559;DHT22;52203;51.998;5.140;2023-08-24T07:41:30;22.67;118.99
65559;DHT22;52203;51.998;5.140;2023-08-24T07:43:55;22.53;118.99
65559;DHT22;52203;51.998;5.140;2023-08-24T07:46:21;22.68;118.99
65559;DHT22;52203;51.998;5.140;2023-08-24T07:48:47;22.54;118.99
65559;DHT22;52203;51.998;5.140;2023-08-24T07:51:12;22.23;118.99
65559;DHT22;52203;51.998;5.140;2023-08-24T07:53:38;22.62;118.99
65559;DHT22;52203;51.998;5.140;2023-08-24T07:56:03;22.50;118.99
65559;DHT22;52203;51.998;5.140;2023-08-24T07:58:29;22.37;118.99
65559;DHT22;52203;51.998;5.140;2023-08-24T08:00:57;22.22;118.99
65559;DHT22;52203;51.998;5.140;2023-08-24T08:03:22;22.07;118.99
65559;DHT22;52203;51.998;5.140;2023-08-24T08:05:48;21.93;118.99
65559;DHT22;52203;51.998;5.140;2023-08-24T08:08:14;21.58;118.99
65559;DHT22;52203;51.998;5.140;2023-08-24T08:10:40;21.25;118.99
65559;DHT22;52203;51.998;5.140;2023-08-24T08:13:07;21.02;118.99
65559;DHT22;52203;51.998;5.140;2023-08-24T08:15:33;20.76;118.99
65559;DHT22;52203;51.998;5.140;2023-08-24T08:17:58;20.72;118.99
65559;DHT22;52203;51.998;5.140;2023-08-24T08:20:24;20.35;118.99
65559;DHT22;52203;51.998;5.140;2023-08-24T08:22:49;20.15;118.99
65559;DHT22;52203;51.998;5.140;2023-08-24T08:25:15;20.02;118.99
65559;DHT22;52203;51.998;5.140;2023-08-24T08:27:43;19.97;118.99
65559;DHT22;52203;51.998;5.140;2023-08-24T08:30:09;19.84;118.99
65559;DHT22;52203;51.998;5.140;2023-08-24T08:32:35;19.79;118.99
65559;DHT22;52203;51.998;5.140;2023-08-24T08:35:01;19.60;118.99
65559;DHT22;52203;51.998;5.140;2023-08-24T08:37:27;19.55;118.99
65559;DHT22;52203;51.998;5.140;2023-08-24T08:39:52;19.52;118.99
65559;DHT22;52203;51.998;5.140;2023-08-24T08:42:18;19.51;118.99
65559;DHT22;52203;51.998;5.140;2023-08-24T08:44:45;19.54;118.99
65559;DHT22;52203;51.998;5.140;2023-08-24T08:47:11;19.47;118.99
65559;DHT22;52203;51.998;5.140;2023-08-24T08:49:39;19.36;118.99
65559;DHT22;52203;51.998;5.140;2023-08-24T08:52:05;19.31;118.99
65559;DHT22;52203;51.998;5.140;2023-08-24T08:54:31;19.16;118.99
65559;DHT22;52203;51.998;5.140;2023-08-24T08:57:00;19.13;118.99
65559;DHT22;52203;51.998;5.140;2023-08-24T08:59:27;19.07;118.99
65559;DHT22;52203;51.998;5.140;2023-08-24T09:02:01;19.03;118.99
65559;DHT22;52203;51.998;5.140;2023-08-24T09:04:31;19.05;118.99
65559;DHT22;52203;51.998;5.140;2023-08-24T09:07:00;19.14;118.99
65559;DHT22;52203;51.998;5.140;2023-08-24T09:09:33;19.18;118.99
65559;DHT22;52203;51.998;5.140;2023-08-24T09:11:59;19.14;118.99
65559;DHT22;52203;51.998;5.140;2023-08-24T09:14:24;19.21;118.99
65559;DHT22;52203;51.998;5.140;2023-08-24T09:16:50;19.14;118.99
65559;DHT22;52203;51.998;5.140;2023-08-24T09:19:15;19.32;118.99
65559;DHT22;52203;51.998;5.140;2023-08-24T09:21:41;19.47;118.99
65559;DHT22;52203;51.998;5.140;2023-08-24T09:24:08;19.59;118.99
65559;DHT22;52203;51.998;5.140;2023-08-24T09:26:35;19.72;118.99
65559;DHT22;52203;51.998;5.140;2023-08-24T09:29:14;19.91;118.99
65559;DHT22;52203;51.998;5.140;2023-08-24T09:31:41;20.09;118.99
65559;DHT22;52203;51.998;5.140;2023-08-24T09:34:09;20.24;118.99
65559;DHT22;52203;51.998;5.140;2023-08-24T09:36:36;20.31;118.99
65559;DHT22;52203;51.998;5.140;2023-08-24T09:39:03;20.37;118.99
65559;DHT22;52203;51.998;5.140;2023-08-24T09:41:45;20.29;118.99
65559;DHT22;52203;51.998;5.140;2023-08-24T09:44:11;20.21;118.99
65559;DHT22;52203;51.998;5.140;2023-08-24T09:46:38;20.13;118.99
65559;DHT22;52203;51.998;5.140;2023-08-24T09:49:07;20.09;118.99
65559;DHT22;52203;51.998;5.140;2023-08-24T09:51:34;20.00;118.99
65559;DHT22;52203;51.998;5.140;2023-08-24T09:54:07;19.86;118.99
65559;DHT22;52203;51.998;5.140;2023-08-24T09:56:39;19.68;118.99
65559;DHT22;52203;51.998;5.140;2023-08-24T10:01:38;19.28;118.99
65559;DHT22;52203;51.998;5.140;2023-08-24T10:04:05;19.08;118.99
65559;DHT22;52203;51.998;5.140;2023-08-24T10:06:32;18.93;118.99
65559;DHT22;52203;51.998;5.140;2023-08-24T10:09:02;18.79;118.99
65559;DHT22;52203;51.998;5.140;2023-08-24T10:11:31;18.67;118.99
65559;DHT22;52203;51.998;5.140;2023-08-24T10:14:05;18.58;118.99
65559;DHT22;52203;51.998;5.140;2023-08-24T10:16:33;18.52;118.99
65559;DHT22;52203;51.998;5.140;2023-08-24T10:19:01;18.43;118.99
65559;DHT22;52203;51.998;5.140;2023-08-24T10:21:28;18.27;118.99
65559;DHT22;52203;51.998;5.140;2023-08-24T10:23:56;18.15;118.99
65559;DHT22;52203;51.998;5.140;2023-08-24T10:26:23;18.04;118.99
65559;DHT22;52203;51.998;5.140;2023-08-24T10:28:50;17.93;118.99
65559;DHT22;52203;51.998;5.140;2023-08-24T10:31:16;17.85;118.99
65559;DHT22;52203;51.998;5.140;2023-08-24T10:33:45;17.79;118.99
65559;DHT22;52203;51.998;5.140;2023-08-24T10:36:12;17.97;118.99
65559;DHT22;52203;51.998;5.140;2023-08-24T10:38:42;17.94;118.99
65559;DHT22;52203;51.998;5.140;2023-08-24T10:41:08;17.90;118.99
65559;DHT22;52203;51.998;5.140;2023-08-24T10:43:38;17.89;118.99
65559;DHT22;52203;51.998;5.140;2023-08-24T10:46:05;17.91;118.99
65559;DHT22;52203;51.998;5.140;2023-08-24T10:54:00;17.98;118.99
65559;DHT22;52203;51.998;5.140;2023-08-24T10:59:15;18.02;118.99
65559;DHT22;52203;51.998;5.140;2023-08-24T11:01:54;17.99;118.99
65559;DHT22;52203;51.998;5.140;2023-08-24T11:04:20;18.00;118.99
65559;DHT22;52203;51.998;5.140;2023-08-24T11:06:56;18.04;118.99
65559;DHT22;52203;51.998;5.140;2023-08-24T11:09:24;18.04;118.99
65559;DHT22;52203;51.998;5.140;2023-08-24T11:12:01;18.07;118.99
65559;DHT22;52203;51.998;5.140;2023-08-24T11:14:27;18.12;118.99
65559;DHT22;52203;51.998;5.140;2023-08-24T11:17:01;18.19;118.99
65559;DHT22;52203;51.998;5.140;2023-08-24T11:19:49;18.24;118.99
65559;DHT22;52203;51.998;5.140;2023-08-24T11:22:17;18.26;118.99
65559;DHT22;52203;51.998;5.140;2023-08-24T11:24:42;18.32;118.99
65559;DHT22;52203;51.998;5.140;2023-08-24T11:27:09;18.35;118.99
65559;DHT22;52203;51.998;5.140;2023-08-24T11:29:34;18.38;118.99
65559;DHT22;52203;51.998;5.140;2023-08-24T11:32:00;18.41;118.99
65559;DHT22;52203;51.998;5.140;2023-08-24T11:34:26;18.43;118.99
65559;DHT22;52203;51.998;5.140;2023-08-24T11:36:51;18.52;118.99
65559;DHT22;52203;51.998;5.140;2023-08-24T11:39:19;18.58;118.99
65559;DHT22;52203;51.998;5.140;2023-08-24T11:41:56;18.69;118.99
65559;DHT22;52203;51.998;5.140;2023-08-24T11:44:22;18.80;118.99
65559;DHT22;52203;51.998;5.140;2023-08-24T11:46:48;18.87;118.99
65559;DHT22;52203;51.998;5.140;2023-08-24T11:49:14;18.99;118.99
65559;DHT22;52203;51.998;5.140;2023-08-24T11:51:39;19.11;118.99
65559;DHT22;52203;51.998;5.140;2023-08-24T11:54:06;19.21;118.99
65559;DHT22;52203;51.998;5.140;2023-08-24T11:56:31;19.31;118.99
65559;DHT22;52203;51.998;5.140;2023-08-24T11:58:57;19.40;118.99
65559;DHT22;52203;51.998;5.140;2023-08-24T12:01:23;19.51;118.99
65559;DHT22;52203;51.998;5.140;2023-08-24T12:03:50;19.68;118.99
65559;DHT22;52203;51.998;5.140;2023-08-24T12:06:16;19.83;118.99
65559;DHT22;52203;51.998;5.140;2023-08-24T12:08:46;19.97;118.99
65559;DHT22;52203;51.998;5.140;2023-08-24T12:11:16;20.06;118.99
65559;DHT22;52203;51.998;5.140;2023-08-24T12:13:59;20.18;118.99
65559;DHT22;52203;51.998;5.140;2023-08-24T12:16:25;20.24;118.99
65559;DHT22;52203;51.998;5.140;2023-08-24T12:21:16;20.35;118.99
65559;DHT22;52203;51.998;5.140;2023-08-24T12:23:42;20.36;118.99
65559;DHT22;52203;51.998;5.140;2023-08-24T12:26:07;20.35;118.99
65559;DHT22;52203;51.998;5.140;2023-08-24T12:28:33;20.27;118.99
65559;DHT22;52203;51.998;5.140;2023-08-24T12:30:59;20.19;118.99
65559;DHT22;52203;51.998;5.140;2023-08-24T12:33:30;20.15;118.99
65559;DHT22;52203;51.998;5.140;2023-08-24T12:35:59;20.14;118.99
65559;DHT22;52203;51.998;5.140;2023-08-24T12:38:26;20.07;118.99
65559;DHT22;52203;51.998;5.140;2023-08-24T12:40:52;20.13;118.99
65559;DHT22;52203;51.998;5.140;2023-08-24T12:43:18;20.21;118.99
65559;DHT22;52203;51.998;5.140;2023-08-24T12:45:44;20.48;118.99
65559;DHT22;52203;51.998;5.140;2023-08-24T12:48:10;20.83;118.99
65559;DHT22;52203;51.998;5.140;2023-08-24T12:50:37;21.18;118.99
65559;DHT22;52203;51.998;5.140;2023-08-24T12:53:02;21.48;118.99
65559;DHT22;52203;51.998;5.140;2023-08-24T12:55:32;21.58;118.99
65559;DHT22;52203;51.998;5.140;2023-08-24T12:57:57;21.74;118.99
65559;DHT22;52203;51.998;5.140;2023-08-24T13:00:23;21.87;118.99
65559;DHT22;52203;51.998;5.140;2023-08-24T13:02:50;21.79;118.99
65559;DHT22;52203;51.998;5.140;2023-08-24T13:05:15;21.91;118.99
65559;DHT22;52203;51.998;5.140;2023-08-24T13:07:41;21.94;118.99
65559;DHT22;52203;51.998;5.140;2023-08-24T13:10:07;22.04;118.99
65559;DHT22;52203;51.998;5.140;2023-08-24T13:12:34;22.05;118.99
65559;DHT22;52203;51.998;5.140;2023-08-24T13:15:00;22.03;118.99
65559;DHT22;52203;51.998;5.140;2023-08-24T13:17:27;21.97;118.99
65559;DHT22;52203;51.998;5.140;2023-08-24T13:19:53;21.90;118.99
65559;DHT22;52203;51.998;5.140;2023-08-24T13:22:18;21.91;118.99
65559;DHT22;52203;51.998;5.140;2023-08-24T13:24:44;21.73;118.99
65559;DHT22;52203;51.998;5.140;2023-08-24T13:27:10;21.44;118.99
65559;DHT22;52203;51.998;5.140;2023-08-24T13:29:36;21.31;118.99
65559;DHT22;52203;51.998;5.140;2023-08-24T13:32:02;21.21;118.99
65559;DHT22;52203;51.998;5.140;2023-08-24T13:34:28;21.04;118.99
65559;DHT22;52203;51.998;5.140;2023-08-24T13:36:53;20.94;118.99
65559;DHT22;52203;51.998;5.140;2023-08-24T13:39:19;20.91;118.99
65559;DHT22;52203;51.998;5.140;2023-08-24T13:41:44;20.86;118.99
65559;DHT22;52203;51.998;5.140;2023-08-24T13:44:10;20.79;118.99
65559;DHT22;52203;51.998;5.140;2023-08-24T13:46:35;20.68;118.99
65559;DHT22;52203;51.998;5.140;2023-08-24T13:49:01;20.56;118.99
65559;DHT22;52203;51.998;5.140;2023-08-24T13:51:27;20.48;118.99
65559;DHT22;52203;51.998;5.140;2023-08-24T13:53:53;20.28;118.99
65559;DHT22;52203;51.998;5.140;2023-08-24T13:56:19;20.25;118.99
65559;DHT22;52203;51.998;5.140;2023-08-24T13:58:45;20.20;118.99
65559;DHT22;52203;51.998;5.140;2023-08-24T14:01:12;20.05;118.99
65559;DHT22;52203;51.998;5.140;2023-08-24T14:03:39;19.92;118.99
65559;DHT22;52203;51.998;5.140;2023-08-24T14:06:05;19.96;118.99
65559;DHT22;52203;51.998;5.140;2023-08-24T14:08:31;19.92;118.99
65559;DHT22;52203;51.998;5.140;2023-08-24T14:10:56;19.87;118.99
65559;DHT22;52203;51.998;5.140;2023-08-24T14:13:22;19.81;118.99
65559;DHT22;52203;51.998;5.140;2023-08-24T14:15:50;19.75;118.99
65559;DHT22;52203;51.998;5.140;2023-08-24T14:18:16;19.65;118.99
65559;DHT22;52203;51.998;5.140;2023-08-24T14:20:43;19.69;118.99
65559;DHT22;52203;51.998;5.140;2023-08-24T14:23:09;19.65;118.99
65559;DHT22;52203;51.998;5.140;2023-08-24T14:25:34;19.60;118.99
65559;DHT22;52203;51.998;5.140;2023-08-24T14:28:00;19.62;118.99
65559;DHT22;52203;51.998;5.140;2023-08-24T14:30:26;19.62;118.99
65559;DHT22;52203;51.998;5.140;2023-08-24T14:32:51;19.67;118.99
65559;DHT22;52203;51.998;5.140;2023-08-24T14:35:17;19.58;118.99
65559;DHT22;52203;51.998;5.140;2023-08-24T14:37:43;19.58;118.99
65559;DHT22;52203;51.998;5.140;2023-08-24T14:40:08;19.52;118.99
65559;DHT22;52203;51.998;5.140;2023-08-24T14:42:35;19.56;118.99
65559;DHT22;52203;51.998;5.140;2023-08-24T14:45:01;19.52;118.99
65559;DHT22;52203;51.998;5.140;2023-08-24T14:47:26;19.45;118.99
65559;DHT22;52203;51.998;5.140;2023-08-24T14:49:52;19.40;118.99
65559;DHT22;52203;51.998;5.140;2023-08-24T14:52:17;19.33;118.99
65559;DHT22;52203;51.998;5.140;2023-08-24T14:54:43;19.28;118.99
65559;DHT22;52203;51.998;5.140;2023-08-24T14:57:08;19.26;118.99
65559;DHT22;52203;51.998;5.140;2023-08-24T14:59:34;19.22;118.99
65559;DHT22;52203;51.998;5.140;2023-08-24T15:02:00;19.16;118.99
65559;DHT22;52203;51.998;5.140;2023-08-24T15:04:26;19.18;118.99
65559;DHT22;52203;51.998;5.140;2023-08-24T15:06:52;19.11;118.99
65559;DHT22;52203;51.998;5.140;2023-08-24T15:09:18;19.13;118.99
65559;DHT22;52203;51.998;5.140;2023-08-24T15:11:44;19.09;118.99
65559;DHT22;52203;51.998;5.140;2023-08-24T15:14:10;19.09;118.99
65559;DHT22;52203;51.998;5.140;2023-08-24T15:16:36;19.11;118.99
65559;DHT22;52203;51.998;5.140;2023-08-24T15:19:01;19.14;118.99
65559;DHT22;52203;51.998;5.140;2023-08-24T15:21:27;19.18;118.99
65559;DHT22;52203;51.998;5.140;2023-08-24T15:23:54;19.23;118.99
65559;DHT22;52203;51.998;5.140;2023-08-24T15:26:20;19.30;118.99
65559;DHT22;52203;51.998;5.140;2023-08-24T15:29:08;19.35;118.99
65559;DHT22;52203;51.998;5.140;2023-08-24T15:31:37;19.40;118.99